Time;durP1;ratioP1;P1;durP2;ratioP2;P2;SDS_P1;SDS_P2;PMS_P1;PMS_P2;Temp;Humidity;BMP_temperature;BMP_pressure;BME280_temperature;BME280_humidity;BME280_pressure;Samples;Min_cycle;Max_cycle;Signal;HPM_P1;HPM_P2
2023/01/16 00:00:18;;;;;;;7.78;1.40;;;6.20;86.80;;;;;;9184101;19;20474;-66
2023/01/16 00:03:19;;;;;;;5.40;1.70;;;6.20;86.80;;;;;;9182110;19;20340;-66
2023/01/16 00:06:21;;;;;;;6.38;1.50;;;6.20;86.80;;;;;;9183336;19;20023;-66
2023/01/16 00:09:22;;;;;;;6.68;1.35;;;6.20;86.80;;;;;;9183936;19;20026;-66
2023/01/16 00:12:24;;;;;;;4.75;1.45;;;6.20;86.80;;;;;;9184293;19;20025;-66
2023/01/16 00:15:25;;;;;;;6.88;2.05;;;6.20;86.80;;;;;;9182152;19;20011;-66
2023/01/16 00:18:27;;;;;;;11.70;1.80;;;6.20;86.80;;;;;;9183824;19;20026;-66
2023/01/16 00:21:28;;;;;;;10.70;1.50;;;6.20;86.70;;;;;;9183055;19;20021;-66
2023/01/16 00:24:29;;;;;;;4.82;1.25;;;6.30;87.40;;;;;;9183279;19;20043;-66
2023/01/16 00:27:31;;;;;;;10.65;1.95;;;6.30;86.80;;;;;;9183469;19;20085;-66
2023/01/16 00:30:32;;;;;;;10.32;1.55;;;6.30;86.80;;;;;;9183384;19;20502;-66
2023/01/16 00:33:34;;;;;;;3.35;1.20;;;6.30;87.20;;;;;;9182998;19;20082;-66
2023/01/16 00:36:38;;;;;;;11.65;1.95;;;6.30;87.40;;;;;;9178951;19;20091;-66
2023/01/16 00:39:39;;;;;;;;;;;6.30;86.90;;;;;;9184263;19;20018;-66
2023/01/16 00:42:41;;;;;;;4.70;1.27;;;6.40;86.90;;;;;;9181017;19;19923;-66
2023/01/16 00:45:43;;;;;;;8.35;1.60;;;6.30;86.70;;;;;;9181775;19;20056;-66
2023/01/16 00:48:44;;;;;;;9.52;1.65;;;6.30;86.70;;;;;;9182316;19;20018;-66
2023/01/16 00:51:45;;;;;;;3.10;1.25;;;6.30;86.80;;;;;;9182332;19;20562;-66
2023/01/16 00:54:47;;;;;;;6.43;1.63;;;6.40;86.80;;;;;;9180289;19;20022;-66
2023/01/16 00:57:48;;;;;;;4.53;1.33;;;6.40;86.80;;;;;;9181910;19;20025;-66
2023/01/16 01:00:49;;;;;;;2.42;1.27;;;6.40;86.80;;;;;;9179762;19;20276;-66
2023/01/16 01:03:51;;;;;;;12.00;1.45;;;6.40;86.80;;;;;;9179149;19;20046;-66
2023/01/16 01:06:52;;;;;;;9.68;1.25;;;6.40;86.80;;;;;;9181523;19;20031;-66
2023/01/16 01:09:54;;;;;;;9.98;1.63;;;6.40;86.70;;;;;;9180930;19;20463;-66
2023/01/16 01:12:55;;;;;;;7.05;1.35;;;6.40;86.70;;;;;;9182353;19;20045;-66
2023/01/16 01:15:56;;;;;;;6.47;1.10;;;6.40;86.70;;;;;;9182114;19;20086;-66
2023/01/16 01:18:58;;;;;;;12.05;1.27;;;6.40;86.80;;;;;;9181281;19;20023;-66
2023/01/16 01:21:59;;;;;;;5.57;1.35;;;6.40;86.80;;;;;;9177984;19;20475;-66
2023/01/16 01:25:01;;;;;;;4.57;1.42;;;6.40;86.70;;;;;;9180651;19;20039;-66
2023/01/16 01:28:02;;;;;;;3.40;1.08;;;6.50;88.40;;;;;;9180308;19;20046;-66
2023/01/16 01:31:09;;;;;;;5.13;1.23;;;6.40;86.90;;;;;;9180931;19;20047;-66
2023/01/16 01:34:10;;;;;;;7.38;1.25;;;6.40;86.80;;;;;;9176510;19;20023;-66
2023/01/16 01:37:12;;;;;;;3.28;1.00;;;6.40;86.90;;;;;;9180830;19;20026;-66
2023/01/16 01:40:13;;;;;;;3.75;1.30;;;6.50;87.00;;;;;;9181197;19;20036;-66
2023/01/16 01:43:16;;;;;;;3.20;1.02;;;6.50;86.80;;;;;;9177868;19;20026;-66
2023/01/16 01:46:29;;;;;;;5.28;1.52;;;6.50;86.90;;;;;;9180665;19;20031;-66
2023/01/16 01:49:31;;;;;;;7.45;0.82;;;6.40;86.70;;;;;;9181401;19;20042;-66
2023/01/16 01:52:34;;;;;;;2.67;1.02;;;6.40;86.70;;;;;;9181055;19;20022;-66
2023/01/16 01:55:37;;;;;;;2.93;1.07;;;6.40;86.80;;;;;;9180571;19;20033;-66
2023/01/16 01:58:40;;;;;;;3.47;0.90;;;6.40;86.80;;;;;;9180481;19;20417;-66
2023/01/16 02:01:47;;;;;;;2.13;1.05;;;6.50;87.40;;;;;;9179263;19;20026;-66
2023/01/16 02:04:51;;;;;;;6.93;1.10;;;6.50;86.80;;;;;;9180425;19;20018;-66
2023/01/16 02:07:53;;;;;;;1.40;1.10;;;6.50;86.80;;;;;;9179746;19;20392;-66
2023/01/16 02:11:07;;;;;;;5.75;1.38;;;6.40;86.80;;;;;;9175242;19;20056;-66
2023/01/16 02:14:10;;;;;;;;;;;6.50;86.80;;;;;;9180311;19;20018;-66
2023/01/16 02:20:48;;;;;;;2.30;1.52;;;6.50;86.70;;;;;;9180018;19;20108;-66
2023/01/16 02:24:11;;;;;;;2.45;1.70;;;6.40;86.70;;;;;;9176195;19;20756;-66
2023/01/16 02:27:24;;;;;;;4.60;1.90;;;6.40;86.70;;;;;;9178450;19;20018;-66
2023/01/16 02:30:53;;;;;;;2.80;2.28;;;6.40;86.80;;;;;;9178973;19;20051;-66
2023/01/16 02:34:20;;;;;;;7.68;2.42;;;6.40;86.80;;;;;;9176612;19;20054;-66
2023/01/16 02:37:54;;;;;;;5.38;2.97;;;6.40;86.80;;;;;;9179906;19;20052;-66
2023/01/16 02:41:01;;;;;;;3.38;2.92;;;6.40;86.80;;;;;;9178517;19;20018;-66
2023/01/16 02:44:28;;;;;;;4.85;3.15;;;6.30;86.80;;;;;;9174952;19;20078;-66
2023/01/16 02:48:06;;;;;;;3.88;3.33;;;6.30;86.80;;;;;;9178512;19;20506;-66
2023/01/16 02:51:23;;;;;;;5.32;3.75;;;6.30;86.80;;;;;;9178833;19;20011;-66
2023/01/16 02:54:46;;;;;;;4.95;3.40;;;6.30;86.80;;;;;;9178206;19;20015;-66
2023/01/16 02:57:50;;;;;;;10.02;4.35;;;6.30;86.90;;;;;;9177778;19;20074;-66
2023/01/16 03:00:56;;;;;;;4.63;3.63;;;6.20;86.80;;;;;;9177444;19;20037;-66
2023/01/16 03:03:58;;;;;;;7.05;3.80;;;6.20;86.90;;;;;;9174307;19;20038;-66
2023/01/16 03:07:13;;;;;;;4.07;3.20;;;6.20;86.90;;;;;;9177574;19;20034;-66
2023/01/16 03:10:33;;;;;;;7.28;3.65;;;6.20;86.90;;;;;;9175739;19;20118;-66
2023/01/16 03:14:00;;;;;;;3.42;2.85;;;6.20;86.90;;;;;;9177128;19;20019;-66
2023/01/16 03:17:09;;;;;;;4.13;2.60;;;6.20;86.90;;;;;;9176585;19;20022;-66
2023/01/16 03:20:22;;;;;;;4.93;2.53;;;6.10;86.80;;;;;;9177647;19;20014;-66
2023/01/16 03:23:44;;;;;;;4.38;2.13;;;6.10;86.90;;;;;;9173868;19;20067;-66
2023/01/16 03:26:49;;;;;;;3.38;1.70;;;6.10;86.90;;;;;;9177248;19;20740;-66
2023/01/16 03:29:59;;;;;;;6.15;2.28;;;6.10;86.90;;;;;;9177130;19;20026;-66
2023/01/16 03:33:05;;;;;;;5.03;2.17;;;6.10;87.00;;;;;;9176660;19;20015;-66
2023/01/16 03:36:30;;;;;;;5.32;2.20;;;6.10;87.00;;;;;;9170236;19;20022;-66
2023/01/16 03:39:53;;;;;;;10.65;2.10;;;6.10;87.00;;;;;;9175729;19;20018;-66
2023/01/16 03:43:08;;;;;;;5.28;2.10;;;6.10;87.00;;;;;;9174231;19;20057;-66
2023/01/16 03:46:20;;;;;;;5.70;1.95;;;6.10;87.00;;;;;;9176789;19;20029;-66
2023/01/16 03:49:30;;;;;;;6.13;1.90;;;6.10;87.00;;;;;;9176195;19;20459;-66
2023/01/16 03:52:36;;;;;;;3.97;2.00;;;6.10;87.10;;;;;;9175564;19;20019;-65
2023/01/16 03:55:41;;;;;;;5.80;1.70;;;6.00;87.00;;;;;;9175677;19;20022;-64
2023/01/16 03:58:45;;;;;;;1.88;1.42;;;6.00;87.00;;;;;;9175253;19;20027;-65
2023/01/16 04:02:11;;;;;;;10.13;1.95;;;6.00;87.00;;;;;;9174864;19;20022;-65
2023/01/16 04:05:35;;;;;;;1.92;1.40;;;6.00;87.10;;;;;;9173367;19;20042;-66
2023/01/16 04:08:40;;;;;;;6.03;2.00;;;6.00;87.10;;;;;;9175804;19;20059;-65
2023/01/16 04:11:43;;;;;;;9.82;1.80;;;6.00;87.10;;;;;;9172511;19;20117;-65
2023/01/16 04:14:48;;;;;;;7.82;1.95;;;6.00;87.10;;;;;;9175550;19;20021;-65
2023/01/16 04:17:50;;;;;;;6.60;2.05;;;6.00;87.10;;;;;;9175865;19;20014;-65
2023/01/16 04:20:52;;;;;;;4.18;1.85;;;6.00;87.10;;;;;;9174857;19;20022;-65
2023/01/16 04:23:55;;;;;;;8.48;2.15;;;6.00;87.10;;;;;;9170456;19;20695;-66
2023/01/16 04:26:56;;;;;;;4.75;1.85;;;6.00;87.10;;;;;;9174901;19;20046;-67
2023/01/16 04:29:58;;;;;;;8.20;2.17;;;6.00;87.10;;;;;;9174863;19;20042;-65
2023/01/16 04:33:03;;;;;;;9.32;2.33;;;6.00;87.10;;;;;;9171141;19;20022;-66
2023/01/16 04:36:05;;;;;;;5.53;1.63;;;6.00;87.10;;;;;;9176858;19;20048;-66
2023/01/16 04:39:06;;;;;;;5.97;1.80;;;6.00;87.10;;;;;;9182637;19;20018;-67
2023/01/16 04:42:09;;;;;;;5.28;1.77;;;6.00;87.20;;;;;;9181822;19;20014;-66
2023/01/16 04:45:10;;;;;;;3.95;1.55;;;6.00;87.10;;;;;;9182768;19;20491;-66
2023/01/16 04:48:12;;;;;;;7.90;1.58;;;6.00;87.10;;;;;;9182500;19;20078;-67
2023/01/16 04:51:13;;;;;;;6.82;1.92;;;6.00;87.20;;;;;;9182139;19;20018;-67
2023/01/16 04:54:16;;;;;;;10.85;1.83;;;5.90;87.10;;;;;;9182551;19;20456;-66
2023/01/16 04:57:18;;;;;;;5.75;1.92;;;5.90;87.10;;;;;;9181010;19;20643;-65
2023/01/16 05:00:19;;;;;;;4.45;1.63;;;5.90;87.10;;;;;;9181866;19;20013;-65
2023/01/16 05:03:21;;;;;;;9.10;1.73;;;5.90;87.10;;;;;;9180421;19;20018;-67
2023/01/16 05:06:22;;;;;;;8.65;1.77;;;5.90;87.20;;;;;;9180321;19;20022;-66
2023/01/16 05:09:24;;;;;;;7.00;1.73;;;5.80;87.70;;;;;;9179695;19;20063;-65
2023/01/16 05:12:25;;;;;;;5.30;2.05;;;5.80;87.10;;;;;;9180970;19;20020;-66
2023/01/16 05:15:26;;;;;;;7.15;1.80;;;5.80;87.10;;;;;;9180123;19;20023;-66
2023/01/16 05:18:28;;;;;;;3.80;1.55;;;5.80;87.20;;;;;;9181998;19;20048;-65
2023/01/16 05:21:29;;;;;;;7.50;1.63;;;5.80;87.20;;;;;;9181179;19;20027;-65
2023/01/16 05:24:31;;;;;;;4.38;1.48;;;5.80;87.20;;;;;;9181245;19;20019;-66
2023/01/16 05:27:32;;;;;;;8.32;1.70;;;5.80;87.30;;;;;;9179415;19;20364;-66
2023/01/16 05:30:33;;;;;;;3.47;1.35;;;5.80;87.30;;;;;;9181946;19;20538;-66
2023/01/16 05:33:35;;;;;;;7.00;1.50;;;5.70;87.30;;;;;;9181191;19;20022;-66
2023/01/16 05:36:36;;;;;;;5.38;1.40;;;5.70;87.20;;;;;;9176582;19;20018;-65
2023/01/16 05:39:37;;;;;;;5.60;1.10;;;5.70;87.30;;;;;;9178826;19;20026;-65
2023/01/16 05:42:42;;;;;;;6.40;1.58;;;5.70;87.30;;;;;;9178605;19;20022;-67
2023/01/16 05:45:43;;;;;;;6.20;1.50;;;5.70;87.30;;;;;;9180556;19;20011;-65
2023/01/16 05:48:44;;;;;;;6.15;1.52;;;5.70;87.30;;;;;;9180176;19;20018;-65
2023/01/16 05:51:46;;;;;;;3.60;1.55;;;5.70;87.30;;;;;;9179927;19;20019;-65
2023/01/16 05:54:47;;;;;;;6.85;1.75;;;5.70;87.30;;;;;;9180258;19;20021;-67
2023/01/16 05:57:48;;;;;;;7.88;1.73;;;5.60;87.30;;;;;;9180556;19;20026;-65
2023/01/16 06:00:50;;;;;;;6.03;1.67;;;5.60;87.30;;;;;;9180508;19;20488;-65
2023/01/16 06:03:51;;;;;;;7.72;1.42;;;5.60;87.30;;;;;;9177466;19;20018;-65
2023/01/16 06:06:54;;;;;;;8.02;2.05;;;5.60;87.30;;;;;;9180452;19;20019;-66
2023/01/16 06:09:55;;;;;;;4.03;1.63;;;5.60;87.40;;;;;;9179511;19;20026;-67
2023/01/16 06:12:56;;;;;;;6.30;1.67;;;5.50;87.30;;;;;;9180161;19;20031;-66
2023/01/16 06:15:58;;;;;;;3.60;1.63;;;5.50;87.30;;;;;;9179642;19;20023;-66
2023/01/16 06:19:00;;;;;;;17.40;3.28;;;5.50;87.40;;;;;;9179982;19;20654;-65
2023/01/16 06:22:01;;;;;;;5.65;1.98;;;5.50;87.40;;;;;;9179249;19;20476;-66
2023/01/16 06:25:03;;;;;;;9.55;1.98;;;5.50;87.40;;;;;;9175785;19;20527;-66
2023/01/16 06:28:06;;;;;;;9.00;1.95;;;5.50;87.40;;;;;;9178664;19;20380;-67
2023/01/16 06:31:08;;;;;;;16.27;3.22;;;5.50;87.40;;;;;;9178290;19;20109;-65
2023/01/16 06:34:09;;;;;;;11.43;2.42;;;5.40;87.40;;;;;;9177031;19;20014;-65
2023/01/16 06:37:11;;;;;;;9.32;2.63;;;5.40;87.40;;;;;;9178604;19;20018;-65
2023/01/16 06:40:13;;;;;;;7.28;2.60;;;5.40;87.40;;;;;;9178794;19;20415;-65
2023/01/16 06:43:16;;;;;;;6.20;1.98;;;5.40;87.40;;;;;;9175714;19;20022;-67
2023/01/16 06:46:17;;;;;;;5.90;1.90;;;5.40;87.40;;;;;;9178099;19;20015;-66
2023/01/16 06:49:19;;;;;;;5.60;2.17;;;5.40;87.40;;;;;;9178296;19;20038;-65
2023/01/16 06:52:20;;;;;;;8.52;2.28;;;5.30;87.40;;;;;;9177923;19;20397;-65
2023/01/16 06:55:21;;;;;;;8.43;2.35;;;5.30;87.40;;;;;;9178220;19;20041;-65
2023/01/16 06:58:23;;;;;;;7.90;3.05;;;5.30;87.40;;;;;;9176545;19;20025;-67
2023/01/16 07:01:24;;;;;;;6.25;2.28;;;5.30;87.40;;;;;;9178625;19;20014;-66
2023/01/16 07:04:26;;;;;;;9.10;2.40;;;5.30;88.10;;;;;;9172791;19;20011;-66
2023/01/16 07:07:27;;;;;;;5.13;2.42;;;5.30;87.60;;;;;;9172472;19;20038;-66
2023/01/16 07:10:29;;;;;;;7.75;2.22;;;5.20;87.80;;;;;;9168245;19;20018;-66
2023/01/16 07:13:30;;;;;;;10.88;2.42;;;5.30;87.50;;;;;;9171395;19;20159;-66
2023/01/16 07:23:23;;;;;;;12.02;2.38;;;5.20;87.50;;;;;;9160372;19;20022;-66
2023/01/16 07:26:25;;;;;;;6.93;2.20;;;5.20;87.50;;;;;;9161290;19;20031;-66
2023/01/16 07:29:29;;;;;;;6.10;1.70;;;5.20;87.50;;;;;;9162284;19;20030;-66
2023/01/16 07:32:30;;;;;;;3.67;1.77;;;5.20;87.50;;;;;;9164599;19;20014;-66
2023/01/16 07:35:35;;;;;;;6.20;1.80;;;5.20;87.50;;;;;;9163325;19;20025;-66
2023/01/16 07:38:36;;;;;;;5.32;2.30;;;5.20;87.50;;;;;;9169298;19;20023;-66
2023/01/16 07:41:37;;;;;;;4.15;1.75;;;5.20;87.50;;;;;;9168206;19;20048;-66
2023/01/16 07:44:58;;;;;;;7.07;1.70;;;5.20;87.50;;;;;;9176955;19;20366;-66
2023/01/16 07:48:00;;;;;;;6.47;1.77;;;5.20;87.50;;;;;;9175852;19;20025;-66
2023/01/16 07:51:01;;;;;;;9.20;2.25;;;5.20;87.60;;;;;;9176268;19;20011;-66
2023/01/16 07:54:03;;;;;;;6.43;1.73;;;5.20;87.50;;;;;;9175830;19;20483;-67
2023/01/16 07:57:04;;;;;;;2.90;1.48;;;5.20;87.50;;;;;;9175639;19;20019;-67
2023/01/16 08:00:07;;;;;;;3.55;1.35;;;5.20;87.60;;;;;;9175469;19;20483;-67
2023/01/16 08:03:13;;;;;;;6.43;1.08;;;5.20;87.60;;;;;;9173805;19;20021;-67
2023/01/16 08:06:15;;;;;;;5.28;1.45;;;5.20;87.70;;;;;;9175392;19;20368;-67
2023/01/16 08:09:16;;;;;;;3.42;1.52;;;5.30;87.60;;;;;;9177078;19;20018;-67
2023/01/16 08:12:18;;;;;;;3.05;1.17;;;5.30;87.70;;;;;;9183245;19;20018;-66
2023/01/16 08:15:19;;;;;;;3.17;1.30;;;5.30;87.70;;;;;;9184073;19;20056;-67
2023/01/16 08:18:20;;;;;;;4.18;1.27;;;5.30;87.70;;;;;;9180848;19;20105;-66
2023/01/16 08:21:22;;;;;;;3.28;1.40;;;5.30;90.10;;;;;;9182623;19;20014;-66
2023/01/16 08:24:25;;;;;;;12.90;1.20;;;5.40;88.20;;;;;;9181427;19;20049;-66
2023/01/16 08:27:26;;;;;;;3.28;0.88;;;5.40;89.60;;;;;;9183145;19;20018;-66
2023/01/16 08:30:27;;;;;;;2.10;1.20;;;5.40;88.00;;;;;;9182943;19;20027;-66
2023/01/16 08:33:29;;;;;;;1.25;1.05;;;5.60;89.70;;;;;;9183251;19;20017;-66
2023/01/16 08:36:30;;;;;;;5.28;1.27;;;5.40;88.50;;;;;;9179165;19;20010;-66
2023/01/16 08:39:31;;;;;;;3.88;1.15;;;5.50;88.20;;;;;;9181356;19;20010;-67
2023/01/16 08:52:36;;;;;;;4.70;1.48;;;5.50;87.60;;;;;;9181712;19;20035;-65
2023/01/16 08:55:40;;;;;;;1.85;1.00;;;5.50;87.60;;;;;;9174462;19;20023;-66
2023/01/16 08:58:42;;;;;;;5.40;1.90;;;5.50;87.70;;;;;;9176472;19;20010;-66
2023/01/16 09:01:43;;;;;;;3.50;1.20;;;5.60;87.70;;;;;;9175952;19;20014;-66
2023/01/16 09:04:45;;;;;;;2.63;0.90;;;5.60;87.70;;;;;;9176917;19;20488;-66
2023/01/16 09:07:46;;;;;;;2.97;1.23;;;5.60;87.70;;;;;;9174849;19;20021;-66
2023/01/16 09:14:08;;;;;;;3.25;1.35;;;5.60;87.80;;;;;;9171528;19;20030;-65
2023/01/16 09:17:26;;;;;;;6.63;1.30;;;5.60;87.80;;;;;;9174737;19;20567;-66
2023/01/16 09:20:28;;;;;;;2.53;1.05;;;5.60;87.70;;;;;;9168328;19;20023;-65
2023/01/16 09:23:29;;;;;;;5.70;1.40;;;5.70;87.80;;;;;;9166921;19;20451;-65
2023/01/16 09:26:31;;;;;;;5.63;1.35;;;5.60;87.80;;;;;;9173341;19;20491;-65
2023/01/16 09:29:32;;;;;;;4.00;1.27;;;5.60;87.80;;;;;;9175189;19;20148;-65
2023/01/16 09:32:33;;;;;;;6.47;2.38;;;5.70;87.80;;;;;;9174830;19;20038;-65
2023/01/16 09:35:35;;;;;;;2.85;1.30;;;5.60;87.70;;;;;;9171282;19;20078;-65
2023/01/16 09:38:36;;;;;;;1.55;0.95;;;5.70;87.80;;;;;;9175570;19;20455;-66
2023/01/16 09:45:23;;;;;;;7.32;1.52;;;5.60;87.80;;;;;;9174945;19;20042;-65
2023/01/16 09:48:30;;;;;;;3.75;1.27;;;5.70;87.90;;;;;;9174904;19;20357;-65
2023/01/16 09:51:39;;;;;;;3.63;1.40;;;5.60;87.90;;;;;;9174663;19;20018;-65
2023/01/16 10:01:38;;;;;;;1.73;0.90;;;5.60;87.80;;;;;;9174751;19;20035;-65
2023/01/16 10:04:40;;;;;;;3.92;1.55;;;5.60;87.90;;;;;;9170042;19;20054;-64
2023/01/16 10:07:55;;;;;;;5.95;1.60;;;5.60;87.80;;;;;;9173533;19;20054;-64
2023/01/16 10:11:27;;;;;;;2.03;1.30;;;5.60;87.80;;;;;;9170599;19;20022;-65
2023/01/16 10:14:51;;;;;;;5.65;1.23;;;5.60;87.90;;;;;;9173732;19;20786;-65
2023/01/16 10:18:21;;;;;;;7.05;1.65;;;5.60;87.90;;;;;;9174838;19;20480;-64
2023/01/16 10:21:28;;;;;;;1.58;0.90;;;5.80;88.20;;;;;;9179578;19;20527;-65
2023/01/16 10:25:05;;;;;;;5.22;1.45;;;5.60;88.10;;;;;;9175052;19;20030;-65
2023/01/16 10:28:25;;;;;;;2.65;1.35;;;5.60;88.00;;;;;;9172694;19;20030;-65
2023/01/16 10:31:45;;;;;;;8.45;1.42;;;5.60;87.90;;;;;;9171695;19;21153;-65
2023/01/16 10:35:03;;;;;;;6.30;1.80;;;5.60;87.90;;;;;;9167483;19;20035;-65
2023/01/16 10:38:18;;;;;;;6.35;1.60;;;5.60;87.90;;;;;;9172269;19;20014;-65
2023/01/16 10:51:50;;;;;;;3.33;1.38;;;5.60;87.90;;;;;;9171190;19;20014;-65
2023/01/16 10:54:54;;;;;;;1.85;1.45;;;5.60;88.00;;;;;;9172361;19;20359;-65
2023/01/16 10:58:00;;;;;;;6.57;1.25;;;5.60;88.00;;;;;;9169486;19;20023;-65
2023/01/16 11:01:06;;;;;;;5.40;1.20;;;5.60;88.00;;;;;;9170638;19;20023;-64
2023/01/16 11:04:11;;;;;;;7.05;1.55;;;5.70;88.10;;;;;;9168768;19;20023;-65
2023/01/16 11:07:19;;;;;;;2.00;1.15;;;5.70;88.20;;;;;;9170639;19;20124;-66
2023/01/16 11:10:22;;;;;;;3.28;1.20;;;5.70;88.20;;;;;;9169745;19;20487;-64
2023/01/16 11:20:10;;;;;;;3.20;1.17;;;5.80;88.20;;;;;;9171818;19;20022;-66
2023/01/16 11:23:18;;;;;;;11.27;3.72;;;5.80;88.20;;;;;;9167214;19;20018;-65
2023/01/16 11:26:19;;;;;;;3.28;1.48;;;5.80;88.30;;;;;;9170478;19;20033;-65
2023/01/16 11:29:24;;;;;;;5.20;1.65;;;5.80;88.20;;;;;;9170278;19;20683;-66
2023/01/16 11:32:28;;;;;;;6.97;1.27;;;5.90;88.40;;;;;;9169111;19;20531;-66
2023/01/16 11:35:32;;;;;;;;;;;5.90;88.30;;;;;;9157861;19;20018;-65
2023/01/16 11:38:37;;;;;;;5.73;1.33;;;5.90;88.40;;;;;;9163757;19;20315;-65
2023/01/16 11:41:39;;;;;;;1.52;1.08;;;5.90;88.30;;;;;;9169721;19;20407;-66
2023/01/16 11:48:22;;;;;;;2.58;1.05;;;5.90;88.40;;;;;;9172229;19;20349;-64
2023/01/16 11:51:28;;;;;;;3.15;1.52;;;6.00;88.40;;;;;;9174366;19;20365;-64
2023/01/16 11:54:32;;;;;;;2.53;1.02;;;6.00;88.40;;;;;;9175809;19;20022;-64
2023/01/16 11:57:59;;;;;;;5.93;1.40;;;6.00;88.40;;;;;;9177262;19;20048;-64
2023/01/16 12:01:11;;;;;;;2.53;1.10;;;6.00;88.40;;;;;;9176665;19;20026;-65
2023/01/16 12:04:23;;;;;;;4.82;1.30;;;6.00;88.40;;;;;;9175158;19;20452;-65
2023/01/16 12:07:32;;;;;;;5.38;1.42;;;6.10;88.40;;;;;;9180138;19;20055;-65
2023/01/16 12:10:53;;;;;;;4.07;1.55;;;6.10;88.40;;;;;;9181579;19;20018;-65
2023/01/16 12:14:26;;;;;;;1.45;0.90;;;6.10;88.50;;;;;;9182620;19;20018;-64
2023/01/16 12:18:06;;;;;;;1.10;0.88;;;6.10;88.40;;;;;;9183360;19;20027;-65
2023/01/16 12:21:27;;;;;;;2.08;1.27;;;6.10;88.40;;;;;;9183284;19;20097;-64
2023/01/16 12:24:48;;;;;;;4.00;1.02;;;6.10;88.40;;;;;;9181710;19;20098;-64
2023/01/16 12:28:11;;;;;;;1.55;0.90;;;6.10;88.50;;;;;;9183084;19;20022;-64
2023/01/16 12:31:37;;;;;;;9.05;2.60;;;6.10;88.50;;;;;;9183310;19;20015;-65
2023/01/16 12:35:12;;;;;;;1.63;0.88;;;6.10;88.50;;;;;;9179162;19;20064;-66
2023/01/16 12:38:15;;;;;;;4.45;1.30;;;6.20;88.50;;;;;;9182796;19;20021;-66
2023/01/16 12:45:06;;;;;;;3.17;1.20;;;6.20;88.60;;;;;;9179957;19;20018;-66
2023/01/16 12:48:20;;;;;;;1.73;0.82;;;6.20;88.60;;;;;;9182589;19;20014;-65
2023/01/16 12:51:39;;;;;;;2.80;1.00;;;6.20;88.70;;;;;;9182376;19;20015;-65
2023/01/16 12:55:08;;;;;;;2.78;0.82;;;6.30;88.80;;;;;;9179541;19;20010;-65
2023/01/16 12:58:32;;;;;;;1.55;0.70;;;6.30;88.70;;;;;;9177623;19;20054;-64
2023/01/16 13:01:39;;;;;;;3.08;1.00;;;6.40;88.80;;;;;;9181748;19;20010;-67
2023/01/16 13:04:50;;;;;;;2.13;0.90;;;6.40;88.90;;;;;;9179209;19;20049;-66
2023/01/16 13:07:59;;;;;;;2.58;0.90;;;6.40;89.00;;;;;;9180060;19;20018;-64
2023/01/16 13:14:31;;;;;;;1.90;0.93;;;6.40;89.90;;;;;;9179562;19;20026;-66
2023/01/16 13:17:50;;;;;;;1.00;0.70;;;6.40;91.20;;;;;;9181327;19;20023;-66
2023/01/16 13:21:02;;;;;;;2.83;0.95;;;6.50;88.70;;;;;;9181959;19;20478;-66
2023/01/16 13:24:15;;;;;;;1.00;0.70;;;6.50;88.70;;;;;;9179703;19;20035;-65
2023/01/16 13:27:22;;;;;;;2.80;1.00;;;6.50;88.80;;;;;;9181366;19;20023;-66
2023/01/16 13:30:23;;;;;;;5.55;0.90;;;6.60;88.90;;;;;;9181081;19;20023;-66
2023/01/16 13:33:31;;;;;;;1.45;0.85;;;6.60;88.90;;;;;;9181017;19;20022;-66
2023/01/16 13:37:04;;;;;;;1.40;0.70;;;6.40;88.70;;;;;;9176780;19;20023;-66
2023/01/16 13:40:30;;;;;;;1.40;0.80;;;6.60;88.80;;;;;;9180569;19;20018;-66
2023/01/16 13:47:06;;;;;;;1.63;0.75;;;6.70;88.70;;;;;;9180433;19;20018;-66
2023/01/16 13:50:13;;;;;;;2.20;0.82;;;6.70;88.70;;;;;;9180663;19;20026;-66
2023/01/16 13:53:15;;;;;;;1.08;0.90;;;6.80;88.80;;;;;;9179621;19;20014;-66
2023/01/16 13:56:22;;;;;;;5.35;1.42;;;6.70;88.60;;;;;;9180928;19;20414;-66
2023/01/16 13:59:53;;;;;;;1.85;0.90;;;6.70;88.60;;;;;;9178419;19;20023;-66
2023/01/16 14:03:23;;;;;;;5.72;0.70;;;6.70;88.60;;;;;;9179116;19;20029;-66
2023/01/16 14:06:27;;;;;;;2.25;0.82;;;6.70;88.70;;;;;;9177971;19;20011;-66
2023/01/16 14:09:29;;;;;;;5.07;0.80;;;6.70;88.50;;;;;;9178895;19;20018;-66
2023/01/16 14:13:00;;;;;;;2.83;0.90;;;6.80;88.60;;;;;;9180064;19;20034;-66
2023/01/16 14:16:33;;;;;;;1.38;0.80;;;6.70;88.60;;;;;;9179806;19;20007;-66
2023/01/16 14:19:53;;;;;;;0.98;0.75;;;6.80;88.60;;;;;;9179764;19;20125;-66
2023/01/16 14:26:39;;;;;;;0.93;0.70;;;6.70;88.50;;;;;;9178745;19;20014;-66
2023/01/16 14:29:49;;;;;;;2.67;0.85;;;6.70;88.50;;;;;;9177811;19;20464;-66
2023/01/16 14:32:53;;;;;;;3.28;0.85;;;6.70;88.40;;;;;;9179035;19;20382;-65
2023/01/16 14:35:58;;;;;;;3.20;0.65;;;6.70;88.50;;;;;;9174064;19;20762;-65
2023/01/16 14:38:59;;;;;;;0.90;0.68;;;6.70;88.50;;;;;;9178520;19;20021;-65
2023/01/16 14:56:28;;;;;;;2.08;0.95;;;6.60;88.40;;;;;;9176430;19;20074;-66
2023/01/16 14:59:36;;;;;;;2.40;0.90;;;6.60;88.40;;;;;;9172552;19;20717;-66
2023/01/16 15:02:46;;;;;;;3.30;0.73;;;6.50;88.40;;;;;;9172213;19;20033;-66
2023/01/16 15:05:52;;;;;;;11.43;5.75;;;6.60;88.40;;;;;;9176421;19;20045;-66
2023/01/16 15:08:54;;;;;;;2.25;1.05;;;6.70;89.70;;;;;;9178558;19;20678;-66
2023/01/16 15:11:59;;;;;;;2.15;1.00;;;6.50;88.50;;;;;;9173897;19;20027;-66
2023/01/16 15:15:00;;;;;;;3.72;1.00;;;6.50;88.40;;;;;;9176602;19;20022;-66
2023/01/16 15:24:48;;;;;;;2.40;0.93;;;6.50;88.60;;;;;;9173329;19;20389;-66
2023/01/16 15:28:01;;;;;;;1.48;0.95;;;6.50;88.90;;;;;;9176277;19;20018;-66
2023/01/16 15:31:06;;;;;;;1.83;1.02;;;6.40;88.50;;;;;;9176775;19;20506;-65
2023/01/16 15:34:13;;;;;;;2.28;1.15;;;6.40;89.50;;;;;;9175768;19;20353;-65
2023/01/16 15:37:21;;;;;;;5.68;1.08;;;6.50;88.80;;;;;;9175459;19;20009;-65
2023/01/16 15:40:25;;;;;;;0.98;0.90;;;6.40;88.50;;;;;;9176842;19;20018;-66
2023/01/16 15:47:11;;;;;;;3.45;1.58;;;6.50;88.60;;;;;;9162167;19;20674;-66
2023/01/16 15:50:31;;;;;;;3.83;1.33;;;6.40;88.60;;;;;;9169769;19;20019;-66
2023/01/16 15:53:43;;;;;;;2.83;1.25;;;6.40;88.50;;;;;;9167453;19;20129;-66
2023/01/16 15:56:46;;;;;;;1.30;1.05;;;6.50;88.50;;;;;;9161661;19;20367;-66
2023/01/16 15:59:57;;;;;;;1.63;1.23;;;6.40;88.60;;;;;;9165336;19;20031;-65
2023/01/16 16:03:11;;;;;;;1.10;0.90;;;6.40;88.50;;;;;;9164736;19;20392;-66
2023/01/16 16:06:15;;;;;;;3.00;1.85;;;6.40;88.50;;;;;;9165861;19;20082;-66
2023/01/16 16:09:22;;;;;;;4.35;3.00;;;6.40;88.50;;;;;;9156971;19;20023;-66
2023/01/16 16:12:24;;;;;;;2.97;2.20;;;6.40;88.60;;;;;;9164398;19;20433;-66
2023/01/16 16:18:59;;;;;;;9.07;4.00;;;6.40;88.60;;;;;;9165055;19;20771;-66
2023/01/16 16:25:39;;;;;;;2.78;1.48;;;6.40;88.50;;;;;;9170141;19;20018;-66
2023/01/16 16:28:41;;;;;;;2.00;1.17;;;6.40;88.50;;;;;;9168225;19;20027;-66
2023/01/16 16:31:44;;;;;;;1.00;0.80;;;6.40;88.80;;;;;;9172316;19;20029;-67
2023/01/16 16:34:55;;;;;;;1.02;1.00;;;6.40;89.10;;;;;;9172686;19;20111;-67
2023/01/16 16:37:57;;;;;;;2.28;0.98;;;6.40;88.60;;;;;;9175378;19;20652;-66
2023/01/16 16:41:07;;;;;;;2.17;1.05;;;6.40;88.60;;;;;;9175982;19;20022;-65
2023/01/16 16:44:09;;;;;;;1.70;1.10;;;6.40;88.60;;;;;;9173362;19;20650;-65
2023/01/16 16:47:28;;;;;;;1.38;0.90;;;6.30;88.60;;;;;;9172583;19;20018;-67
2023/01/16 16:50:33;;;;;;;2.38;1.38;;;6.30;88.60;;;;;;9174428;19;20310;-65
2023/01/16 16:53:34;;;;;;;1.90;1.48;;;6.40;88.60;;;;;;9175774;19;20022;-65
2023/01/16 16:56:39;;;;;;;1.70;1.45;;;6.30;88.60;;;;;;9176535;19;20019;-67
2023/01/16 16:59:42;;;;;;;2.80;1.15;;;6.40;88.60;;;;;;9175642;19;20014;-67
2023/01/16 17:02:52;;;;;;;2.47;1.23;;;6.40;88.60;;;;;;9174976;19;20014;-65
2023/01/16 17:05:54;;;;;;;2.65;2.05;;;6.30;88.60;;;;;;9176393;19;20395;-65
2023/01/16 17:08:55;;;;;;;4.18;1.58;;;6.40;88.70;;;;;;9162107;19;20033;-65
2023/01/16 17:12:10;;;;;;;1.10;1.00;;;6.40;88.70;;;;;;9166988;19;20064;-65
2023/01/16 17:15:13;;;;;;;1.40;1.10;;;6.30;88.60;;;;;;9174374;19;20506;-64
2023/01/16 17:18:15;;;;;;;1.73;1.60;;;6.30;88.60;;;;;;9170115;19;20011;-65
2023/01/16 17:21:18;;;;;;;5.80;3.45;;;6.40;88.70;;;;;;9173980;19;20042;-65
2023/01/16 17:24:20;;;;;;;3.83;1.60;;;6.30;88.70;;;;;;9172206;19;20026;-65
2023/01/16 17:27:21;;;;;;;1.67;1.48;;;6.30;88.70;;;;;;9174284;19;20014;-66
2023/01/16 17:30:24;;;;;;;2.63;1.63;;;6.30;88.70;;;;;;9174555;19;20011;-66
2023/01/16 17:33:27;;;;;;;4.28;2.08;;;6.40;88.70;;;;;;9173591;19;20023;-65
2023/01/16 17:36:28;;;;;;;2.63;2.30;;;6.40;88.70;;;;;;9167053;19;20022;-68
2023/01/16 17:39:30;;;;;;;2.85;1.80;;;6.40;88.80;;;;;;9170399;19;20010;-65
2023/01/16 17:45:55;;;;;;;5.28;1.88;;;6.40;88.70;;;;;;9172905;19;20044;-66
2023/01/16 17:48:56;;;;;;;2.75;2.15;;;6.30;89.20;;;;;;9173054;19;20014;-65
2023/01/16 17:51:58;;;;;;;2.53;2.15;;;6.30;88.70;;;;;;9173279;19;20446;-67
2023/01/16 18:01:47;;;;;;;2.95;2.45;;;6.30;88.80;;;;;;9171843;19;20022;-65
2023/01/16 18:04:50;;;;;;;5.32;2.47;;;6.30;88.80;;;;;;9170949;19;20010;-65
2023/01/16 18:07:51;;;;;;;4.25;3.10;;;6.30;88.80;;;;;;9167726;19;20014;-67
2023/01/16 18:10:52;;;;;;;8.43;2.95;;;6.30;88.80;;;;;;9156251;19;20501;-65
2023/01/16 18:17:23;;;;;;;4.38;3.35;;;6.30;88.80;;;;;;9160724;19;20022;-65
2023/01/16 18:20:24;;;;;;;5.30;3.25;;;6.30;88.80;;;;;;9167193;19;20947;-67